Sao Gotardo, Brazil
Current Conditions -  °F | °C
As of 2:00 PM on Friday 24 Oct 2014 (Local Time) from SBUR Reporting Station
Broken Clouds Broken Clouds  
Wind Chill: 81°   Ceiling: 10000
Heat Index: 82°   Visibility: 5mi
Dew Point: 63°   Wind: 5mph
Humidity: 54%   Direction: 80°E
Pressure: 30.03"   Gusts: NA
Location:  19.31°S, 46.05°W
Report Text: SBUR 241600Z 08004KT 030V110 8000 SCT025 BKN100 27/17 Q1017
Loading
Personal Weather Stations






























Interactive Weather Map
Tropical Storm Tracking
New forecast layout! Learn more

10-Day Weather Forecast

Advertisements
Track Severe Weather on mobile